This is the latest recevied weather packets stored in our database for station/object EA1FBN. If no packets are shown the sender has not sent any weather packets the latest 1 day(s).
| Time | Temp. | Humidity | Pressure | Rain* | Wind** | Luminosity | Snow |
|---|---|---|---|---|---|---|---|
| 1778094004 | 15.56° C | 45% | 1012.9 hPa | 0 mm | - | - | - |
| 1778093704 | 15.56° C | 43% | 1012.9 hPa | 0 mm | - | - | - |
| 1778093404 | 16.11° C | 45% | 1012.9 hPa | 0 mm | - | - | - |
| 1778093104 | 16.11° C | 42% | 1012.8 hPa | 0 mm | - | - | - |
| 1778092804 | 16.11° C | 43% | 1012.8 hPa | 0 mm | - | - | - |
| 1778092504 | 16.11° C | 44% | 1012.8 hPa | 0 mm | - | - | - |
| 1778091904 | 16.67° C | 40% | 1012.9 hPa | 0 mm | - | - | - |
| 1778091304 | 17.78° C | 37% | 1012.9 hPa | 0 mm | - | - | - |
| 1778091004 | 17.22° C | 38% | 1013 hPa | 0 mm | - | - | - |
| 1778089504 | 16.67° C | 39% | 1013.1 hPa | 0 mm | - | - | - |
| 1778088904 | 16.67° C | 39% | 1013.2 hPa | 0 mm | - | - | - |
| 1778075705 | 15° C | 50% | 1014.8 hPa | 0 mm | - | - | - |
| 1778075105 | 15° C | 50% | 1014.9 hPa | 0 mm | - | - | - |
| 1778074805 | 15° C | 48% | 1015 hPa | 0 mm | - | - | - |
| 1778073605 | 14.44° C | 52% | 1015.1 hPa | 0 mm | - | - | - |
| 1778073305 | 14.44° C | 52% | 1015.2 hPa | 0 mm | - | - | - |
| 1778073005 | 14.44° C | 52% | 1015.2 hPa | 0 mm | - | - | - |
| 1778072705 | 13.89° C | 50% | 1015.3 hPa | 0 mm | - | - | - |
| 1778072405 | 13.89° C | 53% | 1015.3 hPa | 0 mm | - | - | - |
| 1778072105 | 13.33° C | 58% | 1015.3 hPa | 0 mm | - | - | - |
| 1778071805 | 13.33° C | 56% | 1015.4 hPa | 0 mm | - | - | - |
| 1778071505 | 13.33° C | 55% | 1015.4 hPa | 0 mm | - | - | - |
| 1778071205 | 13.33° C | 54% | 1015.5 hPa | 0 mm | - | - | - |
| 1778070605 | 13.33° C | 56% | 1015.5 hPa | 0 mm | - | - | - |
| 1778070305 | 13.33° C | 57% | 1015.6 hPa | 0 mm | - | - | - |
* Rain latest hour (hover to see other rain measurements)
** Current wind speed in m/s (hover to see current wind gust speed)